createdAt,value
2019-01-27T00:01:43.936Z,6.80
2019-01-27T00:04:56.689Z,6.90
2019-01-27T00:07:59.453Z,6.90
2019-01-27T00:11:16.222Z,6.90
2019-01-27T00:14:17.314Z,6.80
2019-01-27T00:17:06.481Z,6.80
2019-01-27T00:30:49.186Z,6.80
2019-01-27T00:33:15.017Z,6.80
2019-01-27T00:39:39.189Z,6.70
2019-01-27T00:43:20.214Z,6.70
2019-01-27T00:46:24.895Z,6.60
2019-01-27T00:53:08.333Z,6.60
2019-01-27T00:56:06.890Z,6.60
2019-01-27T00:58:47.939Z,6.60
2019-01-27T01:01:43.240Z,6.60
2019-01-27T01:04:57.730Z,7.00
2019-01-27T01:07:47.289Z,6.60
2019-01-27T01:10:54.654Z,6.50
2019-01-27T01:13:45.945Z,6.50
2019-01-27T01:17:00.243Z,6.50
2019-01-27T01:20:02.548Z,6.50
2019-01-27T01:23:04.963Z,6.50
2019-01-27T01:26:02.621Z,6.50
2019-01-27T01:28:53.425Z,6.60
2019-01-27T01:31:46.414Z,6.50
2019-01-27T01:37:45.081Z,6.50
2019-01-27T01:40:34.122Z,6.50
2019-01-27T01:44:12.743Z,6.50
2019-01-27T01:46:54.733Z,6.60
2019-01-27T01:50:11.209Z,6.50
2019-01-27T01:53:21.115Z,6.50
2019-01-27T01:56:17.008Z,6.50
2019-01-27T01:59:01.987Z,6.50
2019-01-27T02:02:08.259Z,6.50
2019-01-27T02:04:48.749Z,6.50
2019-01-27T02:07:38.617Z,6.50
2019-01-27T02:10:49.704Z,6.50
2019-01-27T02:13:33.926Z,6.50
2019-01-27T02:16:31.764Z,6.50
2019-01-27T02:19:25.707Z,6.50
2019-01-27T02:22:28.505Z,6.50
2019-01-27T02:25:14.690Z,6.50
2019-01-27T02:30:27.389Z,6.50
2019-01-27T02:31:02.871Z,6.50
2019-01-27T02:34:03.136Z,6.50
2019-01-27T02:43:00.238Z,6.50
2019-01-27T02:45:44.765Z,6.50
2019-01-27T02:52:03.197Z,6.60
2019-01-27T02:54:56.157Z,6.50
2019-01-27T02:58:11.679Z,6.60
2019-01-27T03:00:50.161Z,6.60
2019-01-27T03:03:42.654Z,6.60
2019-01-27T03:06:36.820Z,6.60
2019-01-27T03:09:30.272Z,6.60
2019-01-27T03:12:22.300Z,6.60
2019-01-27T03:15:02.355Z,6.70
2019-01-27T03:17:48.471Z,6.70
2019-01-27T03:20:32.739Z,6.70
2019-01-27T03:23:12.647Z,6.60
2019-01-27T03:29:09.873Z,6.70
2019-01-27T03:31:43.124Z,6.70
2019-01-27T03:34:25.166Z,6.70
2019-01-27T03:37:13.388Z,6.70
2019-01-27T03:40:08.395Z,6.70
2019-01-27T03:42:49.582Z,6.70
2019-01-27T03:45:34.540Z,6.70
2019-01-27T03:48:48.575Z,6.70
2019-01-27T03:51:35.631Z,6.70
2019-01-27T03:54:21.933Z,6.70
2019-01-27T03:57:04.364Z,6.70
2019-01-27T03:59:35.122Z,6.80
2019-01-27T04:02:38.399Z,6.70
2019-01-27T04:08:19.586Z,6.70
2019-01-27T04:10:58.536Z,6.70
2019-01-27T04:13:36.650Z,6.70
2019-01-27T04:16:15.040Z,6.70
2019-01-27T04:19:06.101Z,6.70
2019-01-27T04:21:50.876Z,6.70
2019-01-27T04:24:39.555Z,6.70
2019-01-27T04:27:30.891Z,6.70
2019-01-27T04:30:14.426Z,6.70
2019-01-27T04:32:51.344Z,6.70
2019-01-27T04:35:42.311Z,6.70
2019-01-27T04:38:21.375Z,6.80
2019-01-27T04:41:10.024Z,6.80
2019-01-27T04:44:04.663Z,6.70
2019-01-27T04:46:36.549Z,6.80
2019-01-27T04:49:27.065Z,6.80
2019-01-27T04:52:13.658Z,6.80
2019-01-27T04:55:02.359Z,6.80
2019-01-27T04:57:49.553Z,6.80
2019-01-27T05:01:00.504Z,6.80
2019-01-27T05:03:49.187Z,6.80
2019-01-27T05:06:27.169Z,6.80
2019-01-27T05:09:04.897Z,6.80
2019-01-27T05:11:55.313Z,6.80
2019-01-27T05:14:35.428Z,6.90
2019-01-27T05:17:19.843Z,6.90
2019-01-27T05:20:04.300Z,6.90
2019-01-27T05:22:46.747Z,6.90
2019-01-27T05:25:29.361Z,6.90
2019-01-27T05:28:12.804Z,6.80
2019-01-27T05:30:54.568Z,6.90
2019-01-27T05:33:35.847Z,6.90
2019-01-27T05:36:21.879Z,6.80
2019-01-27T05:38:56.460Z,6.80
2019-01-27T05:41:32.498Z,6.90
2019-01-27T05:44:22.122Z,6.90
2019-01-27T05:47:03.133Z,6.90
2019-01-27T05:49:43.870Z,6.90
2019-01-27T05:52:23.002Z,6.90
2019-01-27T05:54:49.987Z,6.90
2019-01-27T05:57:36.001Z,6.90
2019-01-27T06:00:27.854Z,6.90
2019-01-27T06:03:03.217Z,6.90
2019-01-27T06:05:39.161Z,6.90
2019-01-27T06:08:38.156Z,6.90
2019-01-27T06:11:19.570Z,6.80
2019-01-27T06:14:04.096Z,6.80
2019-01-27T06:16:45.855Z,6.80
2019-01-27T06:19:37.747Z,6.80
2019-01-27T06:22:12.362Z,6.80
2019-01-27T06:24:57.228Z,6.80
2019-01-27T06:27:32.549Z,6.70
2019-01-27T06:30:11.631Z,6.70
2019-01-27T06:33:04.984Z,6.80
2019-01-27T06:35:53.909Z,6.80
2019-01-27T06:38:36.497Z,6.80
2019-01-27T06:41:10.762Z,6.80
2019-01-27T06:43:57.487Z,6.80
2019-01-27T06:46:37.781Z,6.80
2019-01-27T06:49:25.807Z,6.80
2019-01-27T06:52:04.155Z,6.80
2019-01-27T06:55:07.613Z,6.80
2019-01-27T06:57:56.862Z,6.80
2019-01-27T07:00:53.993Z,6.80
2019-01-27T07:11:28.409Z,6.90
2019-01-27T07:14:33.878Z,6.90
2019-01-27T07:17:45.714Z,6.90
2019-01-27T07:20:57.178Z,6.90
2019-01-27T07:24:27.850Z,7.00
2019-01-27T07:27:34.441Z,7.00
2019-01-27T07:30:38.187Z,7.00
2019-01-27T07:34:57.648Z,7.10
2019-01-27T07:43:07.969Z,7.20
2019-01-27T07:46:52.207Z,7.20
2019-01-27T07:49:27.321Z,7.20
2019-01-27T07:52:58.037Z,7.30
2019-01-27T07:55:59.356Z,7.20
2019-01-27T07:59:06.237Z,7.30
2019-01-27T08:02:41.688Z,7.30
2019-01-27T08:05:41.307Z,7.30
2019-01-27T08:08:56.804Z,7.30
2019-01-27T08:11:57.646Z,7.30
2019-01-27T08:22:48.139Z,7.30
2019-01-27T08:26:26.193Z,7.40
2019-01-27T08:37:07.354Z,7.40
2019-01-27T08:40:16.857Z,7.40
2019-01-27T08:43:48.943Z,7.40
2019-01-27T08:47:26.918Z,7.40
2019-01-27T08:50:39.861Z,7.40
2019-01-27T08:53:51.361Z,7.40
2019-01-27T09:01:06.836Z,7.50
2019-01-27T09:08:56.437Z,7.60
2019-01-27T09:12:24.394Z,7.60
2019-01-27T09:16:49.478Z,7.70
2019-01-27T09:20:00.855Z,7.80
2019-01-27T09:23:42.549Z,7.80
2019-01-27T09:30:57.039Z,7.80
2019-01-27T09:42:14.390Z,7.80
2019-01-27T10:08:29.503Z,7.40
2019-01-27T10:32:25.588Z,7.30
2019-01-27T10:35:25.347Z,7.30
2019-01-27T11:15:45.766Z,7.40
2019-01-27T11:19:23.537Z,7.30
2019-01-27T11:22:46.778Z,7.30
2019-01-27T11:26:21.126Z,7.30
2019-01-27T11:29:42.557Z,7.30
2019-01-27T11:32:55.852Z,7.30
2019-01-27T11:40:13.764Z,7.20
2019-01-27T11:51:32.028Z,7.20
2019-01-27T11:55:41.470Z,7.40
2019-01-27T12:02:46.531Z,7.20
2019-01-27T12:06:15.257Z,7.10
2019-01-27T12:09:28.827Z,7.10
2019-01-27T12:12:28.992Z,7.10
2019-01-27T12:19:54.335Z,7.20
2019-01-27T12:26:53.199Z,7.20
2019-01-27T12:30:07.721Z,7.10
2019-01-27T12:37:07.820Z,7.10
2019-01-27T12:40:26.761Z,7.10
2019-01-27T12:44:17.499Z,7.10
2019-01-27T12:51:04.756Z,7.10
2019-01-27T12:54:50.324Z,7.00
2019-01-27T13:01:32.725Z,7.00
2019-01-27T13:04:50.365Z,7.00
2019-01-27T13:07:52.295Z,7.00
2019-01-27T13:11:15.284Z,8.10
2019-01-27T13:14:39.926Z,7.90
2019-01-27T13:36:42.370Z,7.30
2019-01-27T13:40:41.990Z,7.30
2019-01-27T13:54:46.512Z,7.50
2019-01-27T13:58:09.663Z,7.40
2019-01-27T14:01:20.078Z,7.40
2019-01-27T14:08:57.537Z,7.50
2019-01-27T14:12:18.137Z,7.30
2019-01-27T14:15:28.908Z,7.30
2019-01-27T14:18:28.503Z,7.30
2019-01-27T14:22:14.975Z,7.30
2019-01-27T14:25:43.857Z,7.20
2019-01-27T14:29:20.030Z,7.20
2019-01-27T14:32:14.610Z,7.10
2019-01-27T14:35:45.926Z,7.20
2019-01-27T14:39:14.702Z,7.10
2019-01-27T14:42:33.030Z,7.10
2019-01-27T14:56:32.157Z,7.00
2019-01-27T14:59:32.127Z,6.90
2019-01-27T15:06:42.394Z,6.80
2019-01-27T15:10:04.192Z,6.80
2019-01-27T15:13:57.474Z,6.70
2019-01-27T15:20:49.486Z,6.40
2019-01-27T15:24:14.450Z,6.30
2019-01-27T15:32:21.303Z,6.20
2019-01-27T15:35:46.566Z,6.20
2019-01-27T15:39:12.676Z,6.00
2019-01-27T15:42:13.633Z,6.10
2019-01-27T15:48:53.902Z,6.00
2019-01-27T15:59:13.863Z,6.10
2019-01-27T16:02:59.901Z,6.10
2019-01-27T16:06:21.155Z,6.10
2019-01-27T16:13:33.017Z,6.00
2019-01-27T16:17:04.467Z,6.00
2019-01-27T16:20:41.032Z,5.90
2019-01-27T16:24:14.001Z,5.90
2019-01-27T16:27:18.328Z,6.70
2019-01-27T16:30:34.951Z,6.30
2019-01-27T16:34:09.668Z,6.10
2019-01-27T16:41:27.712Z,6.00
2019-01-27T16:44:37.546Z,6.00
2019-01-27T16:46:48.289Z,6.00
2019-01-27T16:48:09.285Z,6.00
2019-01-27T16:51:31.817Z,5.90
2019-01-27T16:54:36.746Z,5.90
2019-01-27T16:58:32.611Z,5.90
2019-01-27T17:08:38.838Z,7.60
2019-01-27T17:12:18.810Z,6.50
2019-01-27T17:15:35.632Z,6.10
2019-01-27T17:21:48.816Z,5.60
2019-01-27T17:25:04.937Z,5.60
2019-01-27T17:28:47.263Z,5.50
2019-01-27T17:36:20.071Z,5.60
2019-01-27T17:44:06.210Z,5.70
2019-01-27T17:47:49.298Z,5.70
2019-01-27T17:57:29.967Z,5.60
2019-01-27T18:04:57.886Z,5.60
2019-01-27T18:08:09.238Z,5.60
2019-01-27T18:14:51.774Z,5.50
2019-01-27T18:18:25.387Z,5.50
2019-01-27T18:21:40.599Z,5.50
2019-01-27T18:24:48.870Z,5.40
2019-01-27T18:28:19.157Z,5.40
2019-01-27T18:31:41.132Z,5.40
2019-01-27T18:34:47.532Z,5.50
2019-01-27T18:37:50.379Z,5.40
2019-01-27T18:41:19.338Z,5.40
2019-01-27T18:44:47.568Z,5.40
2019-01-27T18:51:52.648Z,5.40
2019-01-27T18:54:50.320Z,5.30
2019-01-27T18:58:27.931Z,5.30
2019-01-27T19:01:58.768Z,5.30
2019-01-27T19:05:39.768Z,5.30
2019-01-27T19:09:08.893Z,5.20
2019-01-27T19:12:28.230Z,5.20
2019-01-27T19:16:20.501Z,5.10
2019-01-27T19:21:09.847Z,5.20
2019-01-27T19:24:25.804Z,5.10
2019-01-27T19:31:46.443Z,5.10
2019-01-27T19:39:32.972Z,5.50
2019-01-27T19:43:04.711Z,4.90
2019-01-27T19:46:30.331Z,4.90
2019-01-27T19:53:56.477Z,4.80
2019-01-27T19:57:10.645Z,4.70
2019-01-27T20:02:03.188Z,4.60
2019-01-27T20:04:06.695Z,4.50
2019-01-27T20:07:29.171Z,4.40
2019-01-27T20:10:38.421Z,4.40
2019-01-27T20:13:56.072Z,4.30
2019-01-27T20:17:52.240Z,4.30
2019-01-27T20:20:54.397Z,4.30
2019-01-27T20:25:27.274Z,4.40
2019-01-27T20:28:55.504Z,4.50
2019-01-27T20:32:41.518Z,4.30
2019-01-27T20:40:13.119Z,4.30
2019-01-27T21:00:46.592Z,4.20
2019-01-27T21:04:13.408Z,4.10
2019-01-27T21:11:22.177Z,4.20
2019-01-27T21:14:43.202Z,4.20
2019-01-27T21:18:08.749Z,4.10
2019-01-27T21:21:26.733Z,4.00
2019-01-27T21:24:57.820Z,4.00
2019-01-27T21:28:37.131Z,4.10
2019-01-27T21:31:39.615Z,4.10
2019-01-27T21:34:45.832Z,4.10
2019-01-27T21:38:20.874Z,4.10
2019-01-27T21:42:09.930Z,4.10
2019-01-27T21:45:23.148Z,4.90
2019-01-27T21:48:26.942Z,4.10
2019-01-27T21:54:58.732Z,4.20
2019-01-27T21:58:09.588Z,4.20
2019-01-27T22:00:57.257Z,4.30
2019-01-27T22:04:09.451Z,4.20
2019-01-27T22:08:14.665Z,4.50
2019-01-27T22:12:02.129Z,4.20
2019-01-27T22:15:14.381Z,4.20
2019-01-27T22:18:37.054Z,4.50
2019-01-27T22:21:55.537Z,4.40
2019-01-27T22:25:27.753Z,4.40
2019-01-27T22:28:23.223Z,4.30
2019-01-27T22:31:52.982Z,4.30
2019-01-27T22:37:50.592Z,4.40
2019-01-27T22:44:17.246Z,4.30
2019-01-27T22:47:03.527Z,4.40
2019-01-27T22:49:49.026Z,4.40
2019-01-27T22:52:38.611Z,4.40
2019-01-27T22:53:46.755Z,4.30
2019-01-27T22:55:24.859Z,4.40
2019-01-27T22:58:55.070Z,4.40
2019-01-27T23:05:32.338Z,4.40
2019-01-27T23:12:05.678Z,4.40
2019-01-27T23:15:43.222Z,4.40
2019-01-27T23:18:24.610Z,4.40
2019-01-27T23:21:23.217Z,4.40
2019-01-27T23:24:55.878Z,4.40
2019-01-27T23:28:08.897Z,4.40
2019-01-27T23:30:55.959Z,4.40
2019-01-27T23:34:14.467Z,4.40
2019-01-27T23:36:58.935Z,4.40
2019-01-27T23:43:35.594Z,4.40
2019-01-27T23:46:45.310Z,4.30
2019-01-27T23:49:37.968Z,4.20
2019-01-27T23:52:31.627Z,4.30
2019-01-27T23:58:45.928Z,4.30
